»·PEaware :: AAL485 KLAS-KBFL

AAL485 :: KLAS-KBFL

FLIGHT INFORMATION

Flight Status: Arrived
Operator:
American Airlines
More flights by this operator :: More flights under this callsign
Pilot: Anonymous 39875 (39875)
Aircraft: EMBRAER EMB-170/175
(E170)
More flights by this aircraft type
Origin: KLAS Harry Reid Intl
United States
Destination: KBFL Meadows
United States
More flights between these airports :: More routes between these airports
Route: RADYR2 HEC PMD FASTO2
File this flight plan on PilotEdge
Remarks: RMK / SIMBRIEF
Altitude:
(Current/Filed)
28,000ft
Speed:
(Current/Filed)
452kts
Departed: 14-Jan-23 04:03 PM
Arrived: 14-Jan-23 05:01 PM
Distance/Time
Traveled:
194nm/0:57
Distance/Time
To Go:
Arrived

Flight Plot

Page will automatically refresh every two minutes.

Flight plan parsing failed; only flown route is shown


Map Options




Map Legend


Flown Route
Filed Route
Departure Airport
Arrival Airport
Navaid (VOR, NDB)
Fix

Horizontal Profiles

Position Reports

Time Latitude Longitude Heading Altitude Ground
Speed
14-Jan-23 15:49 36.080016 -115.134877 315 2191ft 0kts
14-Jan-23 15:50 36.080016 -115.134877 315 2191ft 0kts
14-Jan-23 15:51 36.080016 -115.134877 315 2191ft 0kts
14-Jan-23 15:52 36.080016 -115.134877 315 2191ft 0kts
14-Jan-23 15:53 36.080016 -115.134877 315 2191ft 0kts
14-Jan-23 15:54 36.080016 -115.134877 315 2191ft 0kts
14-Jan-23 15:55 36.079973 -115.134825 315 2191ft 2kts
14-Jan-23 15:56 36.079407 -115.134136 315 2191ft 1kts
14-Jan-23 15:57 36.079375 -115.134097 315 2191ft 0kts
14-Jan-23 15:58 36.079535 -115.134112 22 2191ft 2kts
14-Jan-23 15:59 36.079192 -115.133762 179 2191ft 3kts
14-Jan-23 16:00 36.078286 -115.131301 90 2191ft 21kts
14-Jan-23 16:01 36.078302 -115.125570 90 2191ft 15kts
14-Jan-23 16:02 36.077153 -115.121274 164 2191ft 11kts
14-Jan-23 16:03 36.076377 -115.138123 268 2264ft 180kts
14-Jan-23 16:03 36.077150 -115.194073 268 3795ft 199kts
14-Jan-23 16:05 36.053551 -115.262053 204 6672ft 201kts
14-Jan-23 16:06 35.994372 -115.292223 200 9243ft 250kts
14-Jan-23 16:07 35.919031 -115.312000 195 11796ft 305kts
14-Jan-23 16:08 35.832660 -115.333279 195 14304ft 326kts
14-Jan-23 16:08 35.756752 -115.351881 196 16293ft 340kts
14-Jan-23 16:09 35.662236 -115.374982 196 18497ft 353kts
14-Jan-23 16:11 35.566548 -115.441395 232 21079ft 349kts
14-Jan-23 16:12 35.502019 -115.532557 231 23284ft 359kts
14-Jan-23 16:12 35.444695 -115.610052 231 24853ft 383kts
14-Jan-23 16:13 35.371033 -115.709012 231 26460ft 400kts
14-Jan-23 16:14 35.295009 -115.809727 230 27787ft 410kts
14-Jan-23 16:15 35.215783 -115.913312 230 27882ft 419kts
14-Jan-23 16:16 35.136342 -116.018003 231 27880ft 421kts
14-Jan-23 16:17 35.056541 -116.123302 231 27879ft 425kts
14-Jan-23 16:18 34.975950 -116.229203 231 27887ft 426kts
14-Jan-23 16:19 34.895278 -116.334885 231 27890ft 426kts
14-Jan-23 16:20 34.814804 -116.439946 230 27903ft 420kts
14-Jan-23 16:21 34.779921 -116.568554 265 27905ft 409kts
14-Jan-23 16:22 34.772534 -116.705606 262 27894ft 405kts
14-Jan-23 16:23 34.759895 -116.841478 261 27894ft 404kts
14-Jan-23 16:24 34.746251 -116.977181 261 27895ft 403kts
14-Jan-23 16:25 34.732585 -117.111605 261 27896ft 398kts
14-Jan-23 16:26 34.718932 -117.244481 261 27898ft 395kts
14-Jan-23 16:27 34.705259 -117.376125 262 27901ft 393kts
14-Jan-23 16:28 34.691459 -117.507603 262 27799ft 390kts
14-Jan-23 16:29 34.677696 -117.637366 262 26411ft 385kts
14-Jan-23 16:30 34.663815 -117.766885 262 25002ft 387kts
14-Jan-23 16:31 34.649890 -117.895556 261 23479ft 375kts
14-Jan-23 16:32 34.636509 -118.017767 261 22060ft 355kts
14-Jan-23 16:33 34.672099 -118.124270 308 20699ft 370kts
14-Jan-23 16:34 34.744144 -118.210823 305 19302ft 359kts
14-Jan-23 16:35 34.811368 -118.298147 304 17911ft 353kts
14-Jan-23 16:36 34.876349 -118.383061 304 16610ft 332kts
14-Jan-23 16:37 34.938260 -118.464297 304 15405ft 322kts
14-Jan-23 16:38 34.998727 -118.543808 305 14251ft 316kts
14-Jan-23 16:39 35.061003 -118.619336 310 14043ft 317kts
14-Jan-23 16:40 35.126657 -118.691255 314 13887ft 325kts
14-Jan-23 16:41 35.207487 -118.736566 331 12096ft 304kts
14-Jan-23 16:42 35.284403 -118.771508 332 10335ft 285kts
14-Jan-23 16:43 35.356180 -118.808181 332 8555ft 276kts
14-Jan-23 16:44 35.425436 -118.846402 332 7082ft 268kts
14-Jan-23 16:45 35.493311 -118.885016 327 7003ft 269kts
14-Jan-23 16:46 35.555633 -118.935441 322 7001ft 268kts
14-Jan-23 16:47 35.616123 -118.986526 322 5648ft 253kts
14-Jan-23 16:48 35.672392 -119.034305 322 4132ft 236kts
14-Jan-23 16:49 35.726374 -119.080174 322 4004ft 236kts
14-Jan-23 16:50 35.780645 -119.126316 321 4004ft 237kts
14-Jan-23 16:51 35.783112 -119.191814 227 4015ft 218kts
14-Jan-23 16:52 35.737723 -119.240602 222 3064ft 209kts
14-Jan-23 16:53 35.691056 -119.280358 187 2996ft 213kts
14-Jan-23 16:54 35.635199 -119.261281 167 3017ft 196kts
14-Jan-23 16:55 35.584512 -119.238596 145 2989ft 199kts
14-Jan-23 16:56 35.545336 -119.191697 139 3035ft 189kts
14-Jan-23 16:57 35.508919 -119.146884 138 2282ft 177kts
14-Jan-23 16:58 35.477604 -119.109087 137 1458ft 139kts
14-Jan-23 16:59 35.451016 -119.076897 133 681ft 130kts
14-Jan-23 17:00 35.436730 -119.059660 135 517ft 28kts
14-Jan-23 17:01 35.435901 -119.056423 135 517ft 8kts
14-Jan-23 17:02 35.436736 -119.055090 50 517ft 6kts
14-Jan-23 17:03 35.436911 -119.054862 45 517ft 0kts
14-Jan-23 17:04 35.436911 -119.054862 45 517ft 0kts

Navigation Log

Ident Type
Flight plan parsing failed, navigation log unavailable